Terminal Aerodrome Forecast
Issued by NWS

Home | Current Version | Previous Version | Text Only | Print | Product List | Glossary On
Versions: 1 2 3 4 5 6 7 8 9 10 11 12 13 14 15 16 17
651
FTUS42 KTBW 210534
TAFRSW
TAF
KRSW 210534Z 2106/2206 10004KT P6SM SCT025 SCT250
      TEMPO 2106/2108 BKN025
     FM211500 11008KT P6SM FEW030 SCT250
     FM212100 18008KT P6SM FEW040 BKN250
     FM220300 14004KT P6SM SCT035 BKN250=

USA.gov is the U.S. government's official web portal to all federal, state and local government web resources and services.